TimeMST,TemperatureF,Dew PointF,Humidity,Sea Level PressureIn,VisibilityMPH,Wind Direction,Wind SpeedMPH,Gust SpeedMPH,PrecipitationIn,Events,Conditions,WindDirDegrees,DateUTC
12:25 AM,32.0,32.0,100,29.91,10.0,Calm,Calm,-,N/A,,Overcast,0,2014-02-15 07:25:00
12:53 AM,32.0,32.0,100,29.99,10.0,SSW,3.5,-,N/A,,Overcast,210,2014-02-15 07:53:00
1:02 AM,32.0,32.0,100,29.91,10.0,South,4.6,-,N/A,,Overcast,190,2014-02-15 08:02:00
1:53 AM,32.0,32.0,100,29.98,10.0,SSW,4.6,-,N/A,,Overcast,210,2014-02-15 08:53:00
2:53 AM,33.1,33.1,100,29.99,10.0,SW,6.9,-,N/A,,Overcast,220,2014-02-15 09:53:00
3:53 AM,32.0,32.0,100,29.99,10.0,Calm,Calm,-,N/A,,Overcast,0,2014-02-15 10:53:00
4:44 AM,32.0,32.0,100,29.95,10.0,SW,5.8,-,N/A,,Overcast,220,2014-02-15 11:44:00
4:53 AM,32.0,32.0,100,30.01,10.0,SW,4.6,-,N/A,,Overcast,230,2014-02-15 11:53:00
5:38 AM,33.1,33.1,100,29.97,10.0,SSW,6.9,-,N/A,,Overcast,210,2014-02-15 12:38:00
5:53 AM,33.1,33.1,100,30.03,10.0,SW,4.6,-,N/A,,Overcast,230,2014-02-15 12:53:00
6:23 AM,33.1,33.1,100,29.98,10.0,SW,4.6,-,N/A,,Overcast,220,2014-02-15 13:23:00
6:53 AM,32.0,32.0,100,30.05,10.0,Calm,Calm,-,N/A,,Overcast,0,2014-02-15 13:53:00
7:53 AM,32.0,32.0,100,30.06,10.0,SW,5.8,-,N/A,,Overcast,220,2014-02-15 14:53:00
8:53 AM,32.0,32.0,100,30.09,9.0,SSW,5.8,-,N/A,,Overcast,210,2014-02-15 15:53:00
9:13 AM,32.0,32.0,100,30.04,1.8,SSW,5.8,-,0.00,,Overcast,200,2014-02-15 16:13:00
9:26 AM,32.0,32.0,100,30.04,2.5,South,4.6,-,0.01,,Overcast,170,2014-02-15 16:26:00
9:35 AM,32.0,32.0,100,30.05,2.0,South,4.6,-,0.01,,Overcast,190,2014-02-15 16:35:00
9:45 AM,32.0,32.0,100,30.04,1.8,South,6.9,-,0.01,,Overcast,190,2014-02-15 16:45:00
9:53 AM,32.0,32.0,100,30.11,2.5,South,8.1,-,0.01,,Overcast,190,2014-02-15 16:53:00
10:01 AM,33.1,33.1,100,30.04,3.0,South,6.9,-,N/A,,Overcast,190,2014-02-15 17:01:00
10:10 AM,33.1,33.1,100,30.04,2.5,South,9.2,-,0.00,,Overcast,190,2014-02-15 17:10:00
10:44 AM,33.1,33.1,100,30.04,3.0,SSW,8.1,-,0.00,Rain,Light Rain,200,2014-02-15 17:44:00
10:53 AM,33.1,33.1,100,30.10,5.0,SSW,8.1,-,0.00,,Overcast,200,2014-02-15 17:53:00
11:48 AM,33.8,33.8,100,30.04,9.0,SW,5.8,-,0.02,Rain,Light Rain,220,2014-02-15 18:48:00
11:53 AM,33.1,33.1,100,30.10,10.0,SSW,5.8,-,0.02,Rain,Light Rain,210,2014-02-15 18:53:00
12:53 PM,34.0,34.0,100,30.05,10.0,SW,5.8,-,0.02,Rain,Light Rain,230,2014-02-15 19:53:00
1:01 PM,34.0,34.0,100,30.00,10.0,WSW,5.8,-,0.00,Rain,Light Rain,250,2014-02-15 20:01:00
1:53 PM,34.0,34.0,100,30.03,10.0,Calm,Calm,-,0.00,,Overcast,0,2014-02-15 20:53:00
2:53 PM,35.1,35.1,100,30.01,10.0,Calm,Calm,-,N/A,,Overcast,0,2014-02-15 21:53:00
3:28 PM,36.0,34.0,93,29.95,10.0,North,3.5,-,N/A,,Mostly Cloudy,350,2014-02-15 22:28:00
3:38 PM,35.1,34.0,96,29.96,10.0,NE,4.6,-,N/A,,Overcast,50,2014-02-15 22:38:00
3:53 PM,35.1,34.0,96,30.01,10.0,ENE,4.6,-,N/A,,Overcast,60,2014-02-15 22:53:00
4:53 PM,34.0,33.1,96,30.00,10.0,NE,6.9,-,N/A,,Overcast,50,2014-02-15 23:53:00
5:29 PM,32.0,32.0,100,29.91,2.0,ENE,8.1,-,N/A,,Overcast,70,2014-02-16 00:29:00
5:42 PM,32.0,32.0,100,29.90,0.8,NE,8.1,-,N/A,,Overcast,50,2014-02-16 00:42:00
5:53 PM,32.0,32.0,100,29.96,1.5,NE,6.9,-,N/A,,Overcast,50,2014-02-16 00:53:00
5:59 PM,32.0,32.0,100,29.91,3.0,NE,6.9,-,N/A,,Overcast,40,2014-02-16 00:59:00
6:28 PM,32.0,32.0,100,29.91,10.0,NE,3.5,-,N/A,,Scattered Clouds,40,2014-02-16 01:28:00
6:53 PM,32.0,32.0,100,29.98,9.0,Calm,Calm,-,N/A,,Clear,0,2014-02-16 01:53:00
7:53 PM,32.0,32.0,100,29.96,10.0,North,3.5,-,N/A,,Partly Cloudy,350,2014-02-16 02:53:00
8:53 PM,33.1,30.9,92,29.92,10.0,Variable,3.5,-,N/A,,Scattered Clouds,0,2014-02-16 03:53:00
9:53 PM,33.1,30.9,92,29.91,10.0,NNE,5.8,-,N/A,,Clear,30,2014-02-16 04:53:00
10:53 PM,30.9,30.0,96,29.86,10.0,ENE,4.6,-,N/A,,Scattered Clouds,70,2014-02-16 05:53:00
11:53 PM,39.9,30.9,70,29.81,10.0,SSW,9.2,-,0.00,,Overcast,200,2014-02-16 06:53:00